sensor_id;sensor_type;location;lat;lon;timestamp;pressure;altitude;pressure_sealevel;temperature;humidity
75681;BME280;64294;49.176;16.626;2023-06-22T00:02:17;99588.97;;;18.17;100.00
75681;BME280;64294;49.176;16.626;2023-06-22T00:04:44;99596.16;;;18.19;100.00
75681;BME280;64294;49.176;16.626;2023-06-22T00:07:10;99602.69;;;18.11;100.00
75681;BME280;64294;49.176;16.626;2023-06-22T00:09:36;99605.94;;;18.08;100.00
75681;BME280;64294;49.176;16.626;2023-06-22T00:12:02;99595.16;;;18.06;100.00
75681;BME280;64294;49.176;16.626;2023-06-22T00:14:28;99604.78;;;18.11;100.00
75681;BME280;64294;49.176;16.626;2023-06-22T00:16:54;99602.94;;;18.06;100.00
75681;BME280;64294;49.176;16.626;2023-06-22T00:19:22;99597.56;;;17.93;100.00
75681;BME280;64294;49.176;16.626;2023-06-22T00:21:48;99602.22;;;17.98;100.00
75681;BME280;64294;49.176;16.626;2023-06-22T00:24:19;99605.16;;;17.90;100.00
75681;BME280;64294;49.176;16.626;2023-06-22T00:26:48;99601.22;;;17.85;100.00
75681;BME280;64294;49.176;16.626;2023-06-22T00:29:14;99605.00;;;17.88;100.00
75681;BME280;64294;49.176;16.626;2023-06-22T00:31:40;99600.53;;;17.77;100.00
75681;BME280;64294;49.176;16.626;2023-06-22T00:34:05;99604.69;;;17.76;100.00
75681;BME280;64294;49.176;16.626;2023-06-22T00:36:32;99607.47;;;17.84;100.00
75681;BME280;64294;49.176;16.626;2023-06-22T00:38:57;99608.88;;;17.75;100.00
75681;BME280;64294;49.176;16.626;2023-06-22T00:41:23;99606.19;;;17.77;100.00
75681;BME280;64294;49.176;16.626;2023-06-22T00:43:48;99606.28;;;17.70;100.00
75681;BME280;64294;49.176;16.626;2023-06-22T00:46:16;99597.94;;;17.64;100.00
75681;BME280;64294;49.176;16.626;2023-06-22T00:48:42;99599.28;;;17.63;100.00
75681;BME280;64294;49.176;16.626;2023-06-22T00:51:10;99612.16;;;17.64;100.00
75681;BME280;64294;49.176;16.626;2023-06-22T00:53:35;99600.59;;;17.62;100.00
75681;BME280;64294;49.176;16.626;2023-06-22T00:56:03;99606.13;;;17.60;100.00
75681;BME280;64294;49.176;16.626;2023-06-22T00:58:33;99603.44;;;17.62;100.00
75681;BME280;64294;49.176;16.626;2023-06-22T01:00:58;99609.13;;;17.62;100.00
75681;BME280;64294;49.176;16.626;2023-06-22T01:03:25;99605.31;;;17.67;100.00
75681;BME280;64294;49.176;16.626;2023-06-22T01:05:51;99610.06;;;17.65;100.00
75681;BME280;64294;49.176;16.626;2023-06-22T01:09:35;99607.22;;;17.65;100.00
75681;BME280;64294;49.176;16.626;2023-06-22T01:11:36;99604.09;;;17.53;100.00
75681;BME280;64294;49.176;16.626;2023-06-22T01:14:14;99594.75;;;17.60;100.00
75681;BME280;64294;49.176;16.626;2023-06-22T01:16:44;99603.63;;;17.64;100.00
75681;BME280;64294;49.176;16.626;2023-06-22T01:22:10;99588.47;;;17.62;100.00
75681;BME280;64294;49.176;16.626;2023-06-22T01:24:57;99576.72;;;17.65;100.00
75681;BME280;64294;49.176;16.626;2023-06-22T01:30:27;99576.25;;;17.51;100.00
75681;BME280;64294;49.176;16.626;2023-06-22T01:32:56;99575.28;;;17.56;100.00
75681;BME280;64294;49.176;16.626;2023-06-22T01:35:25;99575.34;;;17.49;100.00
75681;BME280;64294;49.176;16.626;2023-06-22T01:37:51;99574.06;;;17.42;100.00
75681;BME280;64294;49.176;16.626;2023-06-22T01:40:19;99570.59;;;17.51;100.00
75681;BME280;64294;49.176;16.626;2023-06-22T01:42:46;99565.59;;;17.60;100.00
75681;BME280;64294;49.176;16.626;2023-06-22T01:45:12;99576.44;;;17.53;100.00
75681;BME280;64294;49.176;16.626;2023-06-22T01:47:39;99571.44;;;17.37;100.00
75681;BME280;64294;49.176;16.626;2023-06-22T01:50:05;99581.03;;;17.49;100.00
75681;BME280;64294;49.176;16.626;2023-06-22T01:52:31;99567.03;;;17.43;100.00
75681;BME280;64294;49.176;16.626;2023-06-22T01:54:59;99568.50;;;17.52;100.00
75681;BME280;64294;49.176;16.626;2023-06-22T01:57:25;99577.44;;;17.48;100.00
75681;BME280;64294;49.176;16.626;2023-06-22T02:02:21;99576.31;;;17.44;100.00
75681;BME280;64294;49.176;16.626;2023-06-22T02:05:12;99579.91;;;17.44;100.00
75681;BME280;64294;49.176;16.626;2023-06-22T02:08:07;99593.34;;;17.44;100.00
75681;BME280;64294;49.176;16.626;2023-06-22T02:10:35;99579.53;;;17.48;100.00
75681;BME280;64294;49.176;16.626;2023-06-22T02:13:03;99587.50;;;17.42;100.00
75681;BME280;64294;49.176;16.626;2023-06-22T02:15:30;99587.91;;;17.38;100.00
75681;BME280;64294;49.176;16.626;2023-06-22T02:17:56;99589.06;;;17.35;100.00
75681;BME280;64294;49.176;16.626;2023-06-22T02:20:24;99578.13;;;17.32;100.00
75681;BME280;64294;49.176;16.626;2023-06-22T02:22:49;99573.38;;;17.34;100.00
75681;BME280;64294;49.176;16.626;2023-06-22T02:25:15;99569.44;;;17.30;100.00
75681;BME280;64294;49.176;16.626;2023-06-22T02:27:40;99580.25;;;17.23;100.00
75681;BME280;64294;49.176;16.626;2023-06-22T02:30:09;99574.91;;;17.27;100.00
75681;BME280;64294;49.176;16.626;2023-06-22T02:32:35;99570.72;;;17.29;100.00
75681;BME280;64294;49.176;16.626;2023-06-22T02:35:03;99573.06;;;17.22;100.00
75681;BME280;64294;49.176;16.626;2023-06-22T02:37:31;99564.88;;;17.26;100.00
75681;BME280;64294;49.176;16.626;2023-06-22T02:39:56;99562.84;;;17.19;100.00
75681;BME280;64294;49.176;16.626;2023-06-22T02:42:22;99573.69;;;17.13;100.00
75681;BME280;64294;49.176;16.626;2023-06-22T02:44:47;99565.00;;;17.11;100.00
75681;BME280;64294;49.176;16.626;2023-06-22T02:47:13;99567.63;;;17.09;100.00
75681;BME280;64294;49.176;16.626;2023-06-22T02:49:41;99573.13;;;17.15;100.00
75681;BME280;64294;49.176;16.626;2023-06-22T02:52:10;99559.59;;;17.23;100.00
75681;BME280;64294;49.176;16.626;2023-06-22T02:54:35;99566.44;;;17.20;100.00
75681;BME280;64294;49.176;16.626;2023-06-22T02:57:01;99562.03;;;17.26;100.00
75681;BME280;64294;49.176;16.626;2023-06-22T02:59:28;99561.53;;;17.20;100.00
75681;BME280;64294;49.176;16.626;2023-06-22T03:01:53;99561.69;;;17.22;100.00
75681;BME280;64294;49.176;16.626;2023-06-22T03:04:19;99552.81;;;17.18;100.00
75681;BME280;64294;49.176;16.626;2023-06-22T03:06:44;99557.50;;;17.23;100.00
75681;BME280;64294;49.176;16.626;2023-06-22T03:09:16;99555.41;;;17.32;100.00
75681;BME280;64294;49.176;16.626;2023-06-22T03:11:41;99556.31;;;17.34;100.00
75681;BME280;64294;49.176;16.626;2023-06-22T03:14:07;99555.75;;;17.36;100.00
75681;BME280;64294;49.176;16.626;2023-06-22T03:16:32;99560.09;;;17.37;100.00
75681;BME280;64294;49.176;16.626;2023-06-22T03:18:59;99565.88;;;17.46;100.00
75681;BME280;64294;49.176;16.626;2023-06-22T03:21:28;99578.97;;;17.42;100.00
75681;BME280;64294;49.176;16.626;2023-06-22T03:23:56;99580.66;;;17.45;100.00
75681;BME280;64294;49.176;16.626;2023-06-22T03:26:22;99592.19;;;17.47;100.00
75681;BME280;64294;49.176;16.626;2023-06-22T03:28:48;99591.56;;;17.56;100.00
75681;BME280;64294;49.176;16.626;2023-06-22T03:31:14;99592.09;;;17.62;100.00
75681;BME280;64294;49.176;16.626;2023-06-22T03:33:39;99607.03;;;17.70;100.00
75681;BME280;64294;49.176;16.626;2023-06-22T03:36:04;99606.63;;;17.66;100.00
75681;BME280;64294;49.176;16.626;2023-06-22T03:38:30;99603.03;;;17.73;100.00
75681;BME280;64294;49.176;16.626;2023-06-22T03:40:55;99605.38;;;17.84;100.00
75681;BME280;64294;49.176;16.626;2023-06-22T03:43:22;99603.13;;;17.83;100.00
75681;BME280;64294;49.176;16.626;2023-06-22T03:45:48;99601.47;;;17.97;100.00
75681;BME280;64294;49.176;16.626;2023-06-22T03:48:13;99605.59;;;18.04;100.00
75681;BME280;64294;49.176;16.626;2023-06-22T03:50:40;99596.16;;;18.19;100.00
75681;BME280;64294;49.176;16.626;2023-06-22T03:53:05;99601.63;;;18.24;100.00
75681;BME280;64294;49.176;16.626;2023-06-22T03:55:34;99606.47;;;18.31;100.00
75681;BME280;64294;49.176;16.626;2023-06-22T03:57:59;99610.97;;;18.34;100.00
75681;BME280;64294;49.176;16.626;2023-06-22T04:00:31;99606.63;;;18.51;100.00
75681;BME280;64294;49.176;16.626;2023-06-22T04:02:56;99602.44;;;18.52;100.00
75681;BME280;64294;49.176;16.626;2023-06-22T04:05:25;99604.28;;;18.57;100.00
75681;BME280;64294;49.176;16.626;2023-06-22T04:07:50;99608.13;;;18.52;100.00
75681;BME280;64294;49.176;16.626;2023-06-22T04:10:16;99612.50;;;18.70;100.00
75681;BME280;64294;49.176;16.626;2023-06-22T04:12:41;99608.47;;;18.73;100.00
75681;BME280;64294;49.176;16.626;2023-06-22T04:15:07;99614.44;;;18.67;100.00
75681;BME280;64294;49.176;16.626;2023-06-22T04:17:32;99607.38;;;18.86;100.00
75681;BME280;64294;49.176;16.626;2023-06-22T04:19:58;99601.16;;;18.97;100.00
75681;BME280;64294;49.176;16.626;2023-06-22T04:22:23;99600.81;;;18.93;100.00
75681;BME280;64294;49.176;16.626;2023-06-22T04:24:48;99604.81;;;19.07;100.00
75681;BME280;64294;49.176;16.626;2023-06-22T04:27:18;99598.41;;;18.89;100.00
75681;BME280;64294;49.176;16.626;2023-06-22T04:29:47;99603.75;;;19.02;100.00
75681;BME280;64294;49.176;16.626;2023-06-22T04:32:15;99602.63;;;19.15;100.00
75681;BME280;64294;49.176;16.626;2023-06-22T04:34:42;99594.06;;;19.42;100.00
75681;BME280;64294;49.176;16.626;2023-06-22T04:37:08;99589.81;;;19.33;100.00
75681;BME280;64294;49.176;16.626;2023-06-22T04:39:33;99581.91;;;19.42;100.00
75681;BME280;64294;49.176;16.626;2023-06-22T04:41:59;99587.06;;;19.53;100.00
75681;BME280;64294;49.176;16.626;2023-06-22T04:44:30;99588.00;;;19.55;100.00
75681;BME280;64294;49.176;16.626;2023-06-22T04:47:02;99590.88;;;19.65;100.00
75681;BME280;64294;49.176;16.626;2023-06-22T04:49:30;99606.94;;;19.70;100.00
75681;BME280;64294;49.176;16.626;2023-06-22T04:52:00;99606.69;;;19.76;100.00
75681;BME280;64294;49.176;16.626;2023-06-22T04:54:28;99609.97;;;19.72;100.00
75681;BME280;64294;49.176;16.626;2023-06-22T04:56:54;99612.69;;;19.80;100.00
75681;BME280;64294;49.176;16.626;2023-06-22T04:59:26;99614.69;;;20.06;100.00
75681;BME280;64294;49.176;16.626;2023-06-22T05:01:59;99614.25;;;20.00;100.00
75681;BME280;64294;49.176;16.626;2023-06-22T05:04:29;99613.56;;;20.29;100.00
75681;BME280;64294;49.176;16.626;2023-06-22T05:06:59;99618.56;;;20.67;100.00
75681;BME280;64294;49.176;16.626;2023-06-22T05:09:25;99631.03;;;20.62;100.00
75681;BME280;64294;49.176;16.626;2023-06-22T05:11:51;99634.94;;;20.76;100.00
75681;BME280;64294;49.176;16.626;2023-06-22T05:14:17;99637.31;;;21.08;100.00
75681;BME280;64294;49.176;16.626;2023-06-22T05:16:45;99632.78;;;21.15;96.53
75681;BME280;64294;49.176;16.626;2023-06-22T05:19:11;99629.69;;;21.52;95.46
75681;BME280;64294;49.176;16.626;2023-06-22T05:21:37;99624.91;;;21.44;94.08
75681;BME280;64294;49.176;16.626;2023-06-22T05:24:03;99625.41;;;21.72;92.39
75681;BME280;64294;49.176;16.626;2023-06-22T05:26:30;99625.19;;;21.58;94.69
75681;BME280;64294;49.176;16.626;2023-06-22T05:28:56;99632.75;;;21.75;93.30
75681;BME280;64294;49.176;16.626;2023-06-22T05:31:22;99628.28;;;22.03;90.51
75681;BME280;64294;49.176;16.626;2023-06-22T05:33:48;99631.13;;;22.03;90.52
75681;BME280;64294;49.176;16.626;2023-06-22T05:36:17;99631.44;;;22.07;89.38
75681;BME280;64294;49.176;16.626;2023-06-22T05:38:45;99621.44;;;22.39;87.66
75681;BME280;64294;49.176;16.626;2023-06-22T05:41:10;99622.50;;;22.77;86.53
75681;BME280;64294;49.176;16.626;2023-06-22T05:43:35;99623.06;;;22.63;86.38
75681;BME280;64294;49.176;16.626;2023-06-22T05:46:01;99616.25;;;22.47;87.56
75681;BME280;64294;49.176;16.626;2023-06-22T05:48:27;99609.06;;;23.24;84.13
75681;BME280;64294;49.176;16.626;2023-06-22T05:50:53;99616.00;;;22.98;84.77
75681;BME280;64294;49.176;16.626;2023-06-22T05:53:19;99615.09;;;23.40;83.48
75681;BME280;64294;49.176;16.626;2023-06-22T05:55:44;99614.91;;;23.82;81.48
75681;BME280;64294;49.176;16.626;2023-06-22T05:58:10;99617.03;;;23.82;80.47
75681;BME280;64294;49.176;16.626;2023-06-22T06:00:36;99623.22;;;24.25;79.39
75681;BME280;64294;49.176;16.626;2023-06-22T06:03:01;99621.50;;;24.69;78.55
75681;BME280;64294;49.176;16.626;2023-06-22T06:05:31;99625.69;;;25.56;73.21
75681;BME280;64294;49.176;16.626;2023-06-22T06:07:56;99631.50;;;25.70;70.63
75681;BME280;64294;49.176;16.626;2023-06-22T06:10:24;99627.88;;;26.24;67.72
75681;BME280;64294;49.176;16.626;2023-06-22T06:12:50;99630.88;;;27.42;63.04
75681;BME280;64294;49.176;16.626;2023-06-22T06:15:17;99627.06;;;27.53;63.24
75681;BME280;64294;49.176;16.626;2023-06-22T06:17:47;99629.59;;;27.92;60.81
75681;BME280;64294;49.176;16.626;2023-06-22T06:20:13;99622.31;;;27.60;61.14
75681;BME280;64294;49.176;16.626;2023-06-22T06:22:38;99625.50;;;27.66;61.08
75681;BME280;64294;49.176;16.626;2023-06-22T06:25:06;99629.13;;;27.82;61.52
75681;BME280;64294;49.176;16.626;2023-06-22T06:27:31;99637.03;;;27.82;61.33
75681;BME280;64294;49.176;16.626;2023-06-22T06:29:57;99641.50;;;27.69;61.33
75681;BME280;64294;49.176;16.626;2023-06-22T06:32:22;99654.63;;;28.03;60.94
75681;BME280;64294;49.176;16.626;2023-06-22T06:34:47;99643.66;;;28.83;58.25
75681;BME280;64294;49.176;16.626;2023-06-22T06:37:18;99641.16;;;29.29;55.82
75681;BME280;64294;49.176;16.626;2023-06-22T06:39:44;99634.41;;;29.77;54.85
75681;BME280;64294;49.176;16.626;2023-06-22T06:42:12;99646.00;;;30.37;53.49
75681;BME280;64294;49.176;16.626;2023-06-22T06:44:38;99644.19;;;30.89;52.07
75681;BME280;64294;49.176;16.626;2023-06-22T06:47:07;99629.53;;;30.63;51.92
75681;BME280;64294;49.176;16.626;2023-06-22T06:49:33;99634.94;;;30.31;52.01
75681;BME280;64294;49.176;16.626;2023-06-22T06:51:58;99628.91;;;30.05;52.90
75681;BME280;64294;49.176;16.626;2023-06-22T06:54:24;99623.38;;;32.16;46.73
75681;BME280;64294;49.176;16.626;2023-06-22T06:56:49;99624.91;;;32.73;45.52
75681;BME280;64294;49.176;16.626;2023-06-22T06:59:15;99623.16;;;31.82;47.88
75681;BME280;64294;49.176;16.626;2023-06-22T07:01:41;99615.25;;;33.57;43.62
75681;BME280;64294;49.176;16.626;2023-06-22T07:04:07;99612.28;;;34.25;42.32
75681;BME280;64294;49.176;16.626;2023-06-22T07:06:32;99615.13;;;35.03;40.80
75681;BME280;64294;49.176;16.626;2023-06-22T07:08:59;99618.63;;;35.94;38.62
75681;BME280;64294;49.176;16.626;2023-06-22T07:11:25;99620.56;;;35.77;38.38
75681;BME280;64294;49.176;16.626;2023-06-22T07:13:50;99614.28;;;34.54;39.11
75681;BME280;64294;49.176;16.626;2023-06-22T07:16:15;99608.81;;;37.19;35.36
75681;BME280;64294;49.176;16.626;2023-06-22T07:18:41;99603.88;;;36.53;36.52
75681;BME280;64294;49.176;16.626;2023-06-22T07:21:06;99603.72;;;37.19;36.28
75681;BME280;64294;49.176;16.626;2023-06-22T07:23:32;99603.16;;;37.51;34.62
75681;BME280;64294;49.176;16.626;2023-06-22T07:25:58;99600.41;;;37.84;34.00
75681;BME280;64294;49.176;16.626;2023-06-22T07:28:27;99597.66;;;39.16;32.17
75681;BME280;64294;49.176;16.626;2023-06-22T07:30:52;99592.50;;;38.62;32.44
75681;BME280;64294;49.176;16.626;2023-06-22T07:33:18;99593.88;;;39.64;30.53
75681;BME280;64294;49.176;16.626;2023-06-22T07:35:44;99584.22;;;41.60;28.17
75681;BME280;64294;49.176;16.626;2023-06-22T07:38:11;99585.19;;;38.89;31.23
75681;BME280;64294;49.176;16.626;2023-06-22T07:40:36;99585.00;;;39.69;30.28
75681;BME280;64294;49.176;16.626;2023-06-22T07:43:05;99588.72;;;39.59;30.25
75681;BME280;64294;49.176;16.626;2023-06-22T07:45:30;99588.56;;;39.91;30.20
75681;BME280;64294;49.176;16.626;2023-06-22T07:48:01;99588.84;;;38.94;31.34
75681;BME280;64294;49.176;16.626;2023-06-22T07:50:26;99590.31;;;39.11;31.36
75681;BME280;64294;49.176;16.626;2023-06-22T07:52:52;99581.34;;;39.70;29.93
75681;BME280;64294;49.176;16.626;2023-06-22T07:55:18;99589.75;;;35.68;35.75
75681;BME280;64294;49.176;16.626;2023-06-22T07:57:43;99585.72;;;36.68;35.71
75681;BME280;64294;49.176;16.626;2023-06-22T08:00:09;99593.56;;;35.81;35.54
75681;BME280;64294;49.176;16.626;2023-06-22T08:02:44;99586.44;;;36.67;34.25
75681;BME280;64294;49.176;16.626;2023-06-22T08:05:10;99591.78;;;36.91;33.96
75681;BME280;64294;49.176;16.626;2023-06-22T08:07:36;99597.53;;;38.06;33.22
75681;BME280;64294;49.176;16.626;2023-06-22T08:10:04;99590.59;;;37.26;34.23
75681;BME280;64294;49.176;16.626;2023-06-22T08:12:30;99589.97;;;36.51;35.57
75681;BME280;64294;49.176;16.626;2023-06-22T08:14:57;99586.63;;;36.85;34.87
75681;BME280;64294;49.176;16.626;2023-06-22T08:17:23;99582.06;;;35.93;35.92
75681;BME280;64294;49.176;16.626;2023-06-22T08:19:49;99581.78;;;35.20;38.38
75681;BME280;64294;49.176;16.626;2023-06-22T08:22:18;99586.16;;;36.36;36.54
75681;BME280;64294;49.176;16.626;2023-06-22T08:24:43;99591.09;;;36.96;34.72
75681;BME280;64294;49.176;16.626;2023-06-22T08:27:10;99598.69;;;34.80;37.26
75681;BME280;64294;49.176;16.626;2023-06-22T08:29:37;99600.41;;;34.53;39.26
75681;BME280;64294;49.176;16.626;2023-06-22T08:32:03;99598.25;;;35.48;37.88
75681;BME280;64294;49.176;16.626;2023-06-22T08:34:28;99595.47;;;34.61;38.90
75681;BME280;64294;49.176;16.626;2023-06-22T08:36:54;99596.50;;;35.81;36.16
75681;BME280;64294;49.176;16.626;2023-06-22T08:39:20;99584.66;;;36.31;35.64
75681;BME280;64294;49.176;16.626;2023-06-22T08:41:46;99589.94;;;35.83;36.10
75681;BME280;64294;49.176;16.626;2023-06-22T08:44:12;99588.38;;;32.96;41.97
75681;BME280;64294;49.176;16.626;2023-06-22T08:46:38;99581.19;;;34.82;39.78
75681;BME280;64294;49.176;16.626;2023-06-22T08:49:05;99574.09;;;34.11;40.79
75681;BME280;64294;49.176;16.626;2023-06-22T08:51:31;99566.38;;;36.33;37.08
75681;BME280;64294;49.176;16.626;2023-06-22T08:53:56;99570.91;;;36.46;36.61
75681;BME280;64294;49.176;16.626;2023-06-22T08:56:22;99573.31;;;35.39;38.01
75681;BME280;64294;49.176;16.626;2023-06-22T08:58:47;99556.13;;;37.25;35.34
75681;BME280;64294;49.176;16.626;2023-06-22T09:01:13;99560.44;;;37.16;34.55
75681;BME280;64294;49.176;16.626;2023-06-22T09:03:40;99547.44;;;37.41;35.16
75681;BME280;64294;49.176;16.626;2023-06-22T09:06:06;99553.09;;;35.59;36.90
75681;BME280;64294;49.176;16.626;2023-06-22T09:08:32;99557.50;;;37.12;35.24
75681;BME280;64294;49.176;16.626;2023-06-22T09:10:57;99543.69;;;36.31;35.90
75681;BME280;64294;49.176;16.626;2023-06-22T09:13:22;99555.50;;;36.44;35.72
75681;BME280;64294;49.176;16.626;2023-06-22T09:15:48;99550.88;;;36.20;35.99
75681;BME280;64294;49.176;16.626;2023-06-22T09:18:14;99536.72;;;38.33;33.97
75681;BME280;64294;49.176;16.626;2023-06-22T09:20:42;99541.47;;;37.25;34.19
75681;BME280;64294;49.176;16.626;2023-06-22T09:23:07;99540.84;;;37.47;35.24
75681;BME280;64294;49.176;16.626;2023-06-22T09:25:33;99533.66;;;36.55;36.58
75681;BME280;64294;49.176;16.626;2023-06-22T09:27:58;99533.75;;;36.69;36.39
75681;BME280;64294;49.176;16.626;2023-06-22T09:30:27;99534.00;;;37.02;35.67
75681;BME280;64294;49.176;16.626;2023-06-22T09:32:52;99529.19;;;37.63;36.39
75681;BME280;64294;49.176;16.626;2023-06-22T09:35:18;99528.44;;;37.58;34.36
75681;BME280;64294;49.176;16.626;2023-06-22T09:37:43;99533.84;;;36.79;35.55
75681;BME280;64294;49.176;16.626;2023-06-22T09:40:12;99529.13;;;37.43;35.21
75681;BME280;64294;49.176;16.626;2023-06-22T09:42:41;99527.13;;;39.10;32.53
75681;BME280;64294;49.176;16.626;2023-06-22T09:45:07;99521.25;;;38.04;33.33
75681;BME280;64294;49.176;16.626;2023-06-22T09:47:32;99525.56;;;37.73;33.59
75681;BME280;64294;49.176;16.626;2023-06-22T09:49:58;99532.84;;;37.57;34.61
75681;BME280;64294;49.176;16.626;2023-06-22T09:52:27;99518.34;;;38.29;34.35
75681;BME280;64294;49.176;16.626;2023-06-22T09:54:53;99523.91;;;37.27;35.34
75681;BME280;64294;49.176;16.626;2023-06-22T09:57:18;99533.63;;;36.51;35.94
75681;BME280;64294;49.176;16.626;2023-06-22T09:59:44;99533.13;;;36.00;36.50
75681;BME280;64294;49.176;16.626;2023-06-22T10:02:09;99510.00;;;35.03;38.70
75681;BME280;64294;49.176;16.626;2023-06-22T10:04:35;99514.47;;;37.49;36.89
75681;BME280;64294;49.176;16.626;2023-06-22T10:07:04;99511.72;;;39.08;33.34
75681;BME280;64294;49.176;16.626;2023-06-22T10:09:29;99509.28;;;39.65;31.89
75681;BME280;64294;49.176;16.626;2023-06-22T10:11:55;99495.56;;;38.05;33.89
75681;BME280;64294;49.176;16.626;2023-06-22T10:14:20;99518.06;;;37.37;36.01
75681;BME280;64294;49.176;16.626;2023-06-22T10:16:46;99504.41;;;38.21;34.78
75681;BME280;64294;49.176;16.626;2023-06-22T10:19:11;99513.94;;;38.42;34.50
75681;BME280;64294;49.176;16.626;2023-06-22T10:21:37;99496.34;;;38.74;32.99
75681;BME280;64294;49.176;16.626;2023-06-22T10:24:02;99483.66;;;39.37;33.17
75681;BME280;64294;49.176;16.626;2023-06-22T10:26:36;99505.09;;;38.11;34.45
75681;BME280;64294;49.176;16.626;2023-06-22T10:29:02;99495.41;;;37.48;35.11
75681;BME280;64294;49.176;16.626;2023-06-22T10:31:28;99488.22;;;37.94;34.93
75681;BME280;64294;49.176;16.626;2023-06-22T10:33:54;99479.91;;;39.61;33.73
75681;BME280;64294;49.176;16.626;2023-06-22T10:36:19;99477.88;;;39.04;34.31
75681;BME280;64294;49.176;16.626;2023-06-22T10:38:45;99483.00;;;39.26;33.76
75681;BME280;64294;49.176;16.626;2023-06-22T10:41:12;99483.06;;;38.94;34.20
75681;BME280;64294;49.176;16.626;2023-06-22T10:43:38;99478.47;;;39.52;33.62
75681;BME280;64294;49.176;16.626;2023-06-22T10:46:03;99485.81;;;39.49;32.23
75681;BME280;64294;49.176;16.626;2023-06-22T10:48:28;99477.19;;;38.86;32.27
75681;BME280;64294;49.176;16.626;2023-06-22T10:50:54;99483.06;;;37.80;35.46
75681;BME280;64294;49.176;16.626;2023-06-22T10:53:20;99480.16;;;38.88;34.64
75681;BME280;64294;49.176;16.626;2023-06-22T10:55:45;99474.53;;;39.94;33.91
75681;BME280;64294;49.176;16.626;2023-06-22T10:58:11;99465.50;;;38.71;35.30
75681;BME280;64294;49.176;16.626;2023-06-22T11:00:36;99463.88;;;39.25;34.94
75681;BME280;64294;49.176;16.626;2023-06-22T11:03:02;99444.84;;;37.41;36.70
75681;BME280;64294;49.176;16.626;2023-06-22T11:05:27;99472.34;;;35.90;38.82
75681;BME280;64294;49.176;16.626;2023-06-22T11:07:53;99460.91;;;37.30;37.94
75681;BME280;64294;49.176;16.626;2023-06-22T11:10:18;99456.56;;;37.53;35.48
75681;BME280;64294;49.176;16.626;2023-06-22T11:12:47;99461.38;;;33.85;44.04
75681;BME280;64294;49.176;16.626;2023-06-22T11:15:12;99463.00;;;34.85;40.70
75681;BME280;64294;49.176;16.626;2023-06-22T11:17:38;99459.06;;;35.81;40.85
75681;BME280;64294;49.176;16.626;2023-06-22T11:20:03;99469.28;;;36.61;38.53
75681;BME280;64294;49.176;16.626;2023-06-22T11:22:42;99456.06;;;36.54;39.16
75681;BME280;64294;49.176;16.626;2023-06-22T11:25:10;99444.88;;;37.59;38.61
75681;BME280;64294;49.176;16.626;2023-06-22T11:27:37;99440.56;;;38.01;35.83
75681;BME280;64294;49.176;16.626;2023-06-22T11:30:03;99447.13;;;36.31;39.58
75681;BME280;64294;49.176;16.626;2023-06-22T11:32:29;99439.28;;;35.75;39.72
75681;BME280;64294;49.176;16.626;2023-06-22T11:34:54;99432.38;;;36.19;38.21
75681;BME280;64294;49.176;16.626;2023-06-22T11:37:19;99437.88;;;35.83;40.12
75681;BME280;64294;49.176;16.626;2023-06-22T11:39:45;99437.63;;;36.35;36.53
75681;BME280;64294;49.176;16.626;2023-06-22T11:42:10;99431.19;;;36.57;36.78
75681;BME280;64294;49.176;16.626;2023-06-22T11:44:36;99422.72;;;34.27;40.88
75681;BME280;64294;49.176;16.626;2023-06-22T11:47:01;99434.53;;;34.37;41.87
75681;BME280;64294;49.176;16.626;2023-06-22T11:49:29;99409.09;;;36.31;40.40
75681;BME280;64294;49.176;16.626;2023-06-22T11:51:56;99404.91;;;36.65;37.81
75681;BME280;64294;49.176;16.626;2023-06-22T11:54:22;99409.72;;;36.24;39.41
75681;BME280;64294;49.176;16.626;2023-06-22T11:56:47;99401.19;;;36.54;37.68
75681;BME280;64294;49.176;16.626;2023-06-22T11:59:13;99402.34;;;37.52;36.45
75681;BME280;64294;49.176;16.626;2023-06-22T12:01:38;99397.94;;;37.43;37.19
75681;BME280;64294;49.176;16.626;2023-06-22T12:04:04;99410.94;;;36.95;35.62
75681;BME280;64294;49.176;16.626;2023-06-22T12:06:37;99415.78;;;35.67;38.62
75681;BME280;64294;49.176;16.626;2023-06-22T12:09:06;99399.81;;;35.76;39.42
75681;BME280;64294;49.176;16.626;2023-06-22T12:11:32;99405.84;;;35.93;39.33
75681;BME280;64294;49.176;16.626;2023-06-22T12:13:57;99407.75;;;35.01;40.92
75681;BME280;64294;49.176;16.626;2023-06-22T12:16:27;99406.09;;;33.91;42.48
75681;BME280;64294;49.176;16.626;2023-06-22T12:18:52;99397.06;;;34.21;43.08
75681;BME280;64294;49.176;16.626;2023-06-22T12:21:21;99395.84;;;34.85;40.36
75681;BME280;64294;49.176;16.626;2023-06-22T12:23:47;99401.75;;;34.39;41.99
75681;BME280;64294;49.176;16.626;2023-06-22T12:26:12;99412.47;;;34.74;41.61
75681;BME280;64294;49.176;16.626;2023-06-22T12:28:37;99410.16;;;34.18;41.47
75681;BME280;64294;49.176;16.626;2023-06-22T12:31:05;99400.56;;;35.12;39.63
75681;BME280;64294;49.176;16.626;2023-06-22T12:33:31;99401.59;;;35.35;39.90
75681;BME280;64294;49.176;16.626;2023-06-22T12:35:56;99399.91;;;34.61;41.92
75681;BME280;64294;49.176;16.626;2023-06-22T12:38:22;99395.09;;;33.88;42.57
75681;BME280;64294;49.176;16.626;2023-06-22T12:40:47;99388.19;;;33.31;44.38
75681;BME280;64294;49.176;16.626;2023-06-22T12:43:14;99386.81;;;34.65;43.50
75681;BME280;64294;49.176;16.626;2023-06-22T12:45:40;99395.84;;;35.43;40.90
75681;BME280;64294;49.176;16.626;2023-06-22T12:48:05;99391.22;;;35.93;39.21
75681;BME280;64294;49.176;16.626;2023-06-22T12:50:31;99393.13;;;34.99;41.11
75681;BME280;64294;49.176;16.626;2023-06-22T12:52:56;99384.72;;;34.23;43.50